sensor_id;sensor_type;location;lat;lon;timestamp;P1;durP1;ratioP1;P2;durP2;ratioP2
54897;SDS011;40800;52.704;6.398;2024-03-29T00:00:41;6.25;;;2.58;;
54897;SDS011;40800;52.704;6.398;2024-03-29T00:03:09;4.28;;;2.40;;
54897;SDS011;40800;52.704;6.398;2024-03-29T00:05:35;5.90;;;2.90;;
54897;SDS011;40800;52.704;6.398;2024-03-29T00:08:01;5.45;;;2.78;;
54897;SDS011;40800;52.704;6.398;2024-03-29T00:10:28;4.15;;;2.53;;
54897;SDS011;40800;52.704;6.398;2024-03-29T00:12:54;6.65;;;2.58;;
54897;SDS011;40800;52.704;6.398;2024-03-29T00:15:19;8.60;;;2.78;;
54897;SDS011;40800;52.704;6.398;2024-03-29T00:17:45;5.57;;;2.50;;
54897;SDS011;40800;52.704;6.398;2024-03-29T00:20:11;5.30;;;2.72;;
54897;SDS011;40800;52.704;6.398;2024-03-29T00:22:37;4.70;;;2.70;;
54897;SDS011;40800;52.704;6.398;2024-03-29T00:25:02;5.30;;;2.53;;
54897;SDS011;40800;52.704;6.398;2024-03-29T00:27:28;5.03;;;2.50;;
54897;SDS011;40800;52.704;6.398;2024-03-29T00:29:55;7.37;;;3.10;;
54897;SDS011;40800;52.704;6.398;2024-03-29T00:32:20;5.85;;;2.47;;
54897;SDS011;40800;52.704;6.398;2024-03-29T00:34:49;7.35;;;2.60;;
54897;SDS011;40800;52.704;6.398;2024-03-29T00:37:16;5.70;;;2.70;;
54897;SDS011;40800;52.704;6.398;2024-03-29T00:39:42;6.25;;;2.80;;
54897;SDS011;40800;52.704;6.398;2024-03-29T00:42:08;5.57;;;2.53;;
54897;SDS011;40800;52.704;6.398;2024-03-29T00:44:35;5.35;;;2.50;;
54897;SDS011;40800;52.704;6.398;2024-03-29T00:47:02;5.28;;;2.67;;
54897;SDS011;40800;52.704;6.398;2024-03-29T00:49:28;5.00;;;2.25;;
54897;SDS011;40800;52.704;6.398;2024-03-29T00:51:54;6.90;;;2.60;;
54897;SDS011;40800;52.704;6.398;2024-03-29T00:54:20;6.22;;;2.53;;
54897;SDS011;40800;52.704;6.398;2024-03-29T00:56:46;6.53;;;2.40;;
54897;SDS011;40800;52.704;6.398;2024-03-29T00:59:11;7.65;;;2.92;;
54897;SDS011;40800;52.704;6.398;2024-03-29T01:01:37;6.03;;;2.67;;
54897;SDS011;40800;52.704;6.398;2024-03-29T01:04:03;6.35;;;2.70;;
54897;SDS011;40800;52.704;6.398;2024-03-29T01:09:21;6.28;;;2.30;;
54897;SDS011;40800;52.704;6.398;2024-03-29T01:11:46;5.95;;;2.40;;
54897;SDS011;40800;52.704;6.398;2024-03-29T01:14:12;5.57;;;2.90;;
54897;SDS011;40800;52.704;6.398;2024-03-29T01:16:37;6.38;;;2.42;;
54897;SDS011;40800;52.704;6.398;2024-03-29T01:19:03;6.40;;;2.75;;
54897;SDS011;40800;52.704;6.398;2024-03-29T01:21:30;6.60;;;2.72;;
54897;SDS011;40800;52.704;6.398;2024-03-29T01:23:55;5.03;;;2.83;;
54897;SDS011;40800;52.704;6.398;2024-03-29T01:26:21;5.35;;;2.63;;
54897;SDS011;40800;52.704;6.398;2024-03-29T01:28:47;6.85;;;2.53;;
54897;SDS011;40800;52.704;6.398;2024-03-29T01:31:12;4.57;;;2.47;;
54897;SDS011;40800;52.704;6.398;2024-03-29T01:33:38;7.07;;;2.60;;
54897;SDS011;40800;52.704;6.398;2024-03-29T01:36:06;5.15;;;2.60;;
54897;SDS011;40800;52.704;6.398;2024-03-29T01:38:32;4.30;;;2.30;;
54897;SDS011;40800;52.704;6.398;2024-03-29T01:40:58;8.20;;;2.65;;
54897;SDS011;40800;52.704;6.398;2024-03-29T01:43:23;4.43;;;2.50;;
54897;SDS011;40800;52.704;6.398;2024-03-29T01:45:50;8.73;;;2.40;;
54897;SDS011;40800;52.704;6.398;2024-03-29T01:48:18;5.38;;;2.47;;
54897;SDS011;40800;52.704;6.398;2024-03-29T01:50:45;6.68;;;2.40;;
54897;SDS011;40800;52.704;6.398;2024-03-29T01:53:12;7.32;;;2.63;;
54897;SDS011;40800;52.704;6.398;2024-03-29T01:55:40;6.82;;;2.42;;
54897;SDS011;40800;52.704;6.398;2024-03-29T01:58:07;7.87;;;2.70;;
54897;SDS011;40800;52.704;6.398;2024-03-29T02:00:34;5.35;;;2.40;;
54897;SDS011;40800;52.704;6.398;2024-03-29T02:03:03;6.57;;;2.50;;
54897;SDS011;40800;52.704;6.398;2024-03-29T02:05:34;4.32;;;2.10;;
54897;SDS011;40800;52.704;6.398;2024-03-29T02:08:01;5.60;;;2.40;;
54897;SDS011;40800;52.704;6.398;2024-03-29T02:12:54;6.15;;;2.40;;
54897;SDS011;40800;52.704;6.398;2024-03-29T02:15:20;9.93;;;2.50;;
54897;SDS011;40800;52.704;6.398;2024-03-29T02:17:45;7.25;;;2.20;;
54897;SDS011;40800;52.704;6.398;2024-03-29T02:20:11;5.60;;;2.28;;
54897;SDS011;40800;52.704;6.398;2024-03-29T02:22:37;4.45;;;2.28;;
54897;SDS011;40800;52.704;6.398;2024-03-29T02:25:11;4.22;;;2.20;;
54897;SDS011;40800;52.704;6.398;2024-03-29T02:27:37;5.38;;;2.25;;
54897;SDS011;40800;52.704;6.398;2024-03-29T02:30:04;4.82;;;2.13;;
54897;SDS011;40800;52.704;6.398;2024-03-29T02:32:30;7.25;;;2.45;;
54897;SDS011;40800;52.704;6.398;2024-03-29T02:34:56;4.72;;;2.10;;
54897;SDS011;40800;52.704;6.398;2024-03-29T02:37:21;5.68;;;2.33;;
54897;SDS011;40800;52.704;6.398;2024-03-29T02:39:47;4.55;;;2.10;;
54897;SDS011;40800;52.704;6.398;2024-03-29T02:42:12;3.92;;;2.20;;
54897;SDS011;40800;52.704;6.398;2024-03-29T02:44:38;3.90;;;2.40;;
54897;SDS011;40800;52.704;6.398;2024-03-29T02:47:03;4.68;;;2.10;;
54897;SDS011;40800;52.704;6.398;2024-03-29T02:49:29;7.93;;;2.38;;
54897;SDS011;40800;52.704;6.398;2024-03-29T02:51:55;4.25;;;2.10;;
54897;SDS011;40800;52.704;6.398;2024-03-29T02:54:20;6.05;;;2.45;;
54897;SDS011;40800;52.704;6.398;2024-03-29T02:56:46;4.22;;;2.05;;
54897;SDS011;40800;52.704;6.398;2024-03-29T02:59:11;4.50;;;2.10;;
54897;SDS011;40800;52.704;6.398;2024-03-29T03:01:37;4.72;;;2.33;;
54897;SDS011;40800;52.704;6.398;2024-03-29T03:04:02;4.68;;;2.10;;
54897;SDS011;40800;52.704;6.398;2024-03-29T03:06:28;5.75;;;2.22;;
54897;SDS011;40800;52.704;6.398;2024-03-29T03:08:54;4.00;;;2.20;;
54897;SDS011;40800;52.704;6.398;2024-03-29T03:11:38;3.20;;;2.10;;
54897;SDS011;40800;52.704;6.398;2024-03-29T03:14:03;4.05;;;2.20;;
54897;SDS011;40800;52.704;6.398;2024-03-29T03:16:29;5.10;;;2.10;;
54897;SDS011;40800;52.704;6.398;2024-03-29T03:18:54;5.38;;;2.40;;
54897;SDS011;40800;52.704;6.398;2024-03-29T03:21:20;4.78;;;2.15;;
54897;SDS011;40800;52.704;6.398;2024-03-29T03:23:46;8.68;;;2.30;;
54897;SDS011;40800;52.704;6.398;2024-03-29T03:26:11;4.60;;;2.20;;
54897;SDS011;40800;52.704;6.398;2024-03-29T03:28:37;6.78;;;2.53;;
54897;SDS011;40800;52.704;6.398;2024-03-29T03:31:02;4.78;;;2.20;;
54897;SDS011;40800;52.704;6.398;2024-03-29T03:33:28;5.85;;;2.45;;
54897;SDS011;40800;52.704;6.398;2024-03-29T03:35:54;4.68;;;2.00;;
54897;SDS011;40800;52.704;6.398;2024-03-29T03:38:19;5.30;;;2.47;;
54897;SDS011;40800;52.704;6.398;2024-03-29T03:40:45;4.55;;;2.20;;
54897;SDS011;40800;52.704;6.398;2024-03-29T03:43:10;7.72;;;3.00;;
54897;SDS011;40800;52.704;6.398;2024-03-29T03:45:36;5.80;;;2.38;;
54897;SDS011;40800;52.704;6.398;2024-03-29T03:48:06;5.63;;;2.55;;
54897;SDS011;40800;52.704;6.398;2024-03-29T03:50:34;5.55;;;2.60;;
54897;SDS011;40800;52.704;6.398;2024-03-29T03:53:00;5.32;;;2.53;;
54897;SDS011;40800;52.704;6.398;2024-03-29T03:55:26;5.32;;;1.98;;
54897;SDS011;40800;52.704;6.398;2024-03-29T03:57:52;6.88;;;2.22;;
54897;SDS011;40800;52.704;6.398;2024-03-29T04:02:48;6.65;;;2.38;;
54897;SDS011;40800;52.704;6.398;2024-03-29T04:05:14;5.47;;;2.20;;
54897;SDS011;40800;52.704;6.398;2024-03-29T04:07:44;7.80;;;2.15;;
54897;SDS011;40800;52.704;6.398;2024-03-29T04:10:09;5.25;;;1.88;;
54897;SDS011;40800;52.704;6.398;2024-03-29T04:12:35;6.10;;;2.10;;
54897;SDS011;40800;52.704;6.398;2024-03-29T04:15:01;4.55;;;2.15;;
54897;SDS011;40800;52.704;6.398;2024-03-29T04:17:28;5.60;;;2.08;;
54897;SDS011;40800;52.704;6.398;2024-03-29T04:19:55;4.68;;;2.00;;
54897;SDS011;40800;52.704;6.398;2024-03-29T04:22:24;6.00;;;2.05;;
54897;SDS011;40800;52.704;6.398;2024-03-29T04:24:52;5.28;;;1.88;;
54897;SDS011;40800;52.704;6.398;2024-03-29T04:27:17;3.78;;;1.70;;
54897;SDS011;40800;52.704;6.398;2024-03-29T04:29:43;7.70;;;2.28;;
54897;SDS011;40800;52.704;6.398;2024-03-29T04:32:08;6.13;;;2.00;;
54897;SDS011;40800;52.704;6.398;2024-03-29T04:34:34;3.78;;;1.90;;
54897;SDS011;40800;52.704;6.398;2024-03-29T04:37:00;3.17;;;1.85;;
54897;SDS011;40800;52.704;6.398;2024-03-29T04:39:25;4.85;;;1.83;;
54897;SDS011;40800;52.704;6.398;2024-03-29T04:41:52;4.78;;;1.90;;
54897;SDS011;40800;52.704;6.398;2024-03-29T04:44:24;3.47;;;1.90;;
54897;SDS011;40800;52.704;6.398;2024-03-29T04:46:50;5.88;;;2.08;;
54897;SDS011;40800;52.704;6.398;2024-03-29T04:49:21;5.57;;;2.13;;
54897;SDS011;40800;52.704;6.398;2024-03-29T04:51:58;4.60;;;2.00;;
54897;SDS011;40800;52.704;6.398;2024-03-29T04:54:24;5.95;;;2.05;;
54897;SDS011;40800;52.704;6.398;2024-03-29T04:56:50;4.88;;;2.05;;
54897;SDS011;40800;52.704;6.398;2024-03-29T04:59:16;5.43;;;2.33;;
54897;SDS011;40800;52.704;6.398;2024-03-29T05:01:43;2.63;;;1.98;;
54897;SDS011;40800;52.704;6.398;2024-03-29T05:04:09;5.28;;;2.10;;
54897;SDS011;40800;52.704;6.398;2024-03-29T05:06:35;4.25;;;2.20;;
54897;SDS011;40800;52.704;6.398;2024-03-29T05:09:01;3.97;;;1.95;;
54897;SDS011;40800;52.704;6.398;2024-03-29T05:11:27;6.13;;;2.25;;
54897;SDS011;40800;52.704;6.398;2024-03-29T05:13:52;4.45;;;2.25;;
54897;SDS011;40800;52.704;6.398;2024-03-29T05:16:18;3.90;;;1.83;;
54897;SDS011;40800;52.704;6.398;2024-03-29T05:18:43;3.53;;;1.70;;
54897;SDS011;40800;52.704;6.398;2024-03-29T05:21:09;6.20;;;2.00;;
54897;SDS011;40800;52.704;6.398;2024-03-29T05:23:36;4.53;;;1.92;;
54897;SDS011;40800;52.704;6.398;2024-03-29T05:26:01;3.83;;;1.85;;
54897;SDS011;40800;52.704;6.398;2024-03-29T05:28:27;4.07;;;1.92;;
54897;SDS011;40800;52.704;6.398;2024-03-29T05:30:52;4.85;;;2.05;;
54897;SDS011;40800;52.704;6.398;2024-03-29T05:33:18;4.20;;;2.00;;
54897;SDS011;40800;52.704;6.398;2024-03-29T05:35:44;4.80;;;2.08;;
54897;SDS011;40800;52.704;6.398;2024-03-29T05:38:09;10.38;;;2.08;;
54897;SDS011;40800;52.704;6.398;2024-03-29T05:40:35;4.32;;;2.10;;
54897;SDS011;40800;52.704;6.398;2024-03-29T05:43:02;5.50;;;2.20;;
54897;SDS011;40800;52.704;6.398;2024-03-29T05:45:29;5.72;;;2.50;;
54897;SDS011;40800;52.704;6.398;2024-03-29T05:47:55;3.60;;;2.00;;
54897;SDS011;40800;52.704;6.398;2024-03-29T05:50:23;3.95;;;1.90;;
54897;SDS011;40800;52.704;6.398;2024-03-29T05:52:50;3.15;;;2.17;;
54897;SDS011;40800;52.704;6.398;2024-03-29T05:55:18;3.80;;;2.20;;
54897;SDS011;40800;52.704;6.398;2024-03-29T05:57:44;5.32;;;2.70;;
54897;SDS011;40800;52.704;6.398;2024-03-29T06:02:55;4.20;;;2.30;;
54897;SDS011;40800;52.704;6.398;2024-03-29T06:07:47;3.08;;;2.20;;
54897;SDS011;40800;52.704;6.398;2024-03-29T06:10:13;3.10;;;2.10;;
54897;SDS011;40800;52.704;6.398;2024-03-29T06:12:39;2.60;;;2.08;;
54897;SDS011;40800;52.704;6.398;2024-03-29T06:15:05;3.13;;;2.33;;
54897;SDS011;40800;52.704;6.398;2024-03-29T06:17:50;2.65;;;2.45;;
54897;SDS011;40800;52.704;6.398;2024-03-29T06:20:16;4.00;;;2.20;;
54897;SDS011;40800;52.704;6.398;2024-03-29T06:22:41;4.03;;;2.55;;
54897;SDS011;40800;52.704;6.398;2024-03-29T06:25:07;4.97;;;2.40;;
54897;SDS011;40800;52.704;6.398;2024-03-29T06:30:01;4.28;;;2.78;;
54897;SDS011;40800;52.704;6.398;2024-03-29T06:32:28;3.03;;;2.70;;
54897;SDS011;40800;52.704;6.398;2024-03-29T06:34:53;5.40;;;3.38;;
54897;SDS011;40800;52.704;6.398;2024-03-29T06:37:19;3.97;;;3.15;;
54897;SDS011;40800;52.704;6.398;2024-03-29T06:39:47;5.53;;;3.50;;
54897;SDS011;40800;52.704;6.398;2024-03-29T06:42:13;4.70;;;3.55;;
54897;SDS011;40800;52.704;6.398;2024-03-29T06:44:39;4.68;;;3.70;;
54897;SDS011;40800;52.704;6.398;2024-03-29T06:47:04;4.38;;;3.95;;
54897;SDS011;40800;52.704;6.398;2024-03-29T06:49:30;5.07;;;4.00;;
54897;SDS011;40800;52.704;6.398;2024-03-29T06:51:57;4.97;;;3.90;;
54897;SDS011;40800;52.704;6.398;2024-03-29T06:54:25;5.32;;;4.13;;
54897;SDS011;40800;52.704;6.398;2024-03-29T06:56:51;4.68;;;3.78;;
54897;SDS011;40800;52.704;6.398;2024-03-29T06:59:21;4.70;;;4.30;;
54897;SDS011;40800;52.704;6.398;2024-03-29T07:01:46;6.30;;;4.40;;
54897;SDS011;40800;52.704;6.398;2024-03-29T07:04:12;7.45;;;4.70;;
54897;SDS011;40800;52.704;6.398;2024-03-29T07:06:38;5.25;;;4.70;;
54897;SDS011;40800;52.704;6.398;2024-03-29T07:09:04;8.77;;;4.85;;
54897;SDS011;40800;52.704;6.398;2024-03-29T07:11:31;6.35;;;4.82;;
54897;SDS011;40800;52.704;6.398;2024-03-29T07:13:57;5.32;;;4.82;;
54897;SDS011;40800;52.704;6.398;2024-03-29T07:16:22;7.20;;;5.30;;
54897;SDS011;40800;52.704;6.398;2024-03-29T07:18:48;6.65;;;5.75;;
54897;SDS011;40800;52.704;6.398;2024-03-29T07:21:13;6.85;;;6.00;;
54897;SDS011;40800;52.704;6.398;2024-03-29T07:23:39;6.95;;;5.93;;
54897;SDS011;40800;52.704;6.398;2024-03-29T07:26:05;6.60;;;6.00;;
54897;SDS011;40800;52.704;6.398;2024-03-29T07:28:31;6.78;;;6.07;;
54897;SDS011;40800;52.704;6.398;2024-03-29T07:30:57;6.90;;;6.20;;
54897;SDS011;40800;52.704;6.398;2024-03-29T07:33:29;7.20;;;6.22;;
54897;SDS011;40800;52.704;6.398;2024-03-29T07:35:55;7.03;;;6.30;;
54897;SDS011;40800;52.704;6.398;2024-03-29T07:38:21;7.07;;;6.40;;
54897;SDS011;40800;52.704;6.398;2024-03-29T07:40:48;7.22;;;6.63;;
54897;SDS011;40800;52.704;6.398;2024-03-29T07:43:14;6.63;;;6.13;;
54897;SDS011;40800;52.704;6.398;2024-03-29T07:45:40;7.18;;;6.57;;
54897;SDS011;40800;52.704;6.398;2024-03-29T07:48:10;7.60;;;6.80;;
54897;SDS011;40800;52.704;6.398;2024-03-29T07:50:38;7.40;;;6.80;;
54897;SDS011;40800;52.704;6.398;2024-03-29T07:53:04;7.33;;;6.73;;
54897;SDS011;40800;52.704;6.398;2024-03-29T07:55:29;7.78;;;7.18;;
54897;SDS011;40800;52.704;6.398;2024-03-29T07:57:55;7.10;;;6.57;;
54897;SDS011;40800;52.704;6.398;2024-03-29T08:00:21;7.22;;;6.70;;
54897;SDS011;40800;52.704;6.398;2024-03-29T08:02:47;7.45;;;6.75;;
54897;SDS011;40800;52.704;6.398;2024-03-29T08:05:13;7.32;;;6.82;;
54897;SDS011;40800;52.704;6.398;2024-03-29T08:07:38;7.60;;;7.00;;
54897;SDS011;40800;52.704;6.398;2024-03-29T08:10:04;7.28;;;6.78;;
54897;SDS011;40800;52.704;6.398;2024-03-29T08:14:57;7.80;;;7.10;;
54897;SDS011;40800;52.704;6.398;2024-03-29T08:17:23;7.63;;;7.03;;
54897;SDS011;40800;52.704;6.398;2024-03-29T08:19:50;7.80;;;7.10;;
54897;SDS011;40800;52.704;6.398;2024-03-29T08:22:15;8.13;;;7.30;;
54897;SDS011;40800;52.704;6.398;2024-03-29T08:24:41;8.32;;;7.53;;
54897;SDS011;40800;52.704;6.398;2024-03-29T08:27:07;8.00;;;7.30;;
54897;SDS011;40800;52.704;6.398;2024-03-29T08:29:32;8.07;;;7.47;;
54897;SDS011;40800;52.704;6.398;2024-03-29T08:31:58;7.93;;;7.43;;
54897;SDS011;40800;52.704;6.398;2024-03-29T08:34:23;8.30;;;7.60;;
54897;SDS011;40800;52.704;6.398;2024-03-29T08:36:49;7.97;;;7.38;;
54897;SDS011;40800;52.704;6.398;2024-03-29T08:39:15;8.20;;;7.60;;
54897;SDS011;40800;52.704;6.398;2024-03-29T08:41:41;7.80;;;7.20;;
54897;SDS011;40800;52.704;6.398;2024-03-29T08:44:09;8.00;;;7.30;;
54897;SDS011;40800;52.704;6.398;2024-03-29T08:46:35;7.78;;;7.18;;
54897;SDS011;40800;52.704;6.398;2024-03-29T08:49:00;7.78;;;7.20;;
54897;SDS011;40800;52.704;6.398;2024-03-29T08:51:26;7.70;;;7.03;;
54897;SDS011;40800;52.704;6.398;2024-03-29T08:53:52;7.40;;;6.90;;
54897;SDS011;40800;52.704;6.398;2024-03-29T08:56:17;7.47;;;6.88;;
54897;SDS011;40800;52.704;6.398;2024-03-29T08:58:43;7.35;;;6.85;;
54897;SDS011;40800;52.704;6.398;2024-03-29T09:01:08;7.43;;;6.93;;
54897;SDS011;40800;52.704;6.398;2024-03-29T09:03:34;7.35;;;6.78;;
54897;SDS011;40800;52.704;6.398;2024-03-29T09:05:59;7.50;;;7.00;;
54897;SDS011;40800;52.704;6.398;2024-03-29T09:08:25;7.43;;;6.93;;
54897;SDS011;40800;52.704;6.398;2024-03-29T09:10:50;7.28;;;6.78;;
54897;SDS011;40800;52.704;6.398;2024-03-29T09:13:16;7.53;;;6.93;;
54897;SDS011;40800;52.704;6.398;2024-03-29T09:15:42;8.10;;;7.30;;
54897;SDS011;40800;52.704;6.398;2024-03-29T09:18:07;7.32;;;6.82;;
54897;SDS011;40800;52.704;6.398;2024-03-29T09:20:55;7.60;;;6.90;;
54897;SDS011;40800;52.704;6.398;2024-03-29T09:23:22;7.50;;;6.90;;
54897;SDS011;40800;52.704;6.398;2024-03-29T09:25:48;7.20;;;6.60;;
54897;SDS011;40800;52.704;6.398;2024-03-29T09:28:13;7.25;;;6.70;;
54897;SDS011;40800;52.704;6.398;2024-03-29T09:30:39;7.07;;;6.57;;
54897;SDS011;40800;52.704;6.398;2024-03-29T09:33:05;7.35;;;6.70;;
54897;SDS011;40800;52.704;6.398;2024-03-29T09:35:34;7.07;;;6.45;;
54897;SDS011;40800;52.704;6.398;2024-03-29T09:38:00;7.00;;;6.35;;
54897;SDS011;40800;52.704;6.398;2024-03-29T09:40:26;6.90;;;6.40;;
54897;SDS011;40800;52.704;6.398;2024-03-29T09:42:53;6.90;;;6.40;;
54897;SDS011;40800;52.704;6.398;2024-03-29T09:45:28;6.68;;;6.20;;
54897;SDS011;40800;52.704;6.398;2024-03-29T09:48:03;6.68;;;6.20;;
54897;SDS011;40800;52.704;6.398;2024-03-29T09:50:31;6.80;;;6.30;;
54897;SDS011;40800;52.704;6.398;2024-03-29T09:52:58;6.88;;;6.15;;
54897;SDS011;40800;52.704;6.398;2024-03-29T09:55:24;6.10;;;5.60;;
54897;SDS011;40800;52.704;6.398;2024-03-29T09:57:50;6.50;;;6.00;;
54897;SDS011;40800;52.704;6.398;2024-03-29T10:00:17;6.22;;;5.80;;
54897;SDS011;40800;52.704;6.398;2024-03-29T10:02:43;5.97;;;5.57;;
54897;SDS011;40800;52.704;6.398;2024-03-29T10:05:09;6.35;;;5.70;;
54897;SDS011;40800;52.704;6.398;2024-03-29T10:07:37;6.60;;;6.00;;
54897;SDS011;40800;52.704;6.398;2024-03-29T10:10:04;6.10;;;5.60;;
54897;SDS011;40800;52.704;6.398;2024-03-29T10:12:30;5.97;;;5.47;;
54897;SDS011;40800;52.704;6.398;2024-03-29T10:14:55;6.13;;;5.63;;
54897;SDS011;40800;52.704;6.398;2024-03-29T10:17:30;5.97;;;5.43;;
54897;SDS011;40800;52.704;6.398;2024-03-29T10:20:00;6.18;;;5.68;;
54897;SDS011;40800;52.704;6.398;2024-03-29T10:22:28;5.90;;;5.40;;
54897;SDS011;40800;52.704;6.398;2024-03-29T10:25:06;5.90;;;5.40;;
54897;SDS011;40800;52.704;6.398;2024-03-29T10:27:32;6.03;;;5.40;;
54897;SDS011;40800;52.704;6.398;2024-03-29T10:29:58;6.78;;;5.40;;
54897;SDS011;40800;52.704;6.398;2024-03-29T10:32:24;5.90;;;5.40;;
54897;SDS011;40800;52.704;6.398;2024-03-29T10:34:50;6.55;;;5.95;;
54897;SDS011;40800;52.704;6.398;2024-03-29T10:37:16;6.18;;;5.60;;
54897;SDS011;40800;52.704;6.398;2024-03-29T10:39:49;6.40;;;5.80;;
54897;SDS011;40800;52.704;6.398;2024-03-29T10:42:15;6.50;;;5.90;;
54897;SDS011;40800;52.704;6.398;2024-03-29T10:44:42;6.78;;;6.18;;
54897;SDS011;40800;52.704;6.398;2024-03-29T10:47:08;7.03;;;6.20;;
54897;SDS011;40800;52.704;6.398;2024-03-29T10:49:36;6.70;;;6.20;;
54897;SDS011;40800;52.704;6.398;2024-03-29T10:52:06;7.30;;;6.63;;
54897;SDS011;40800;52.704;6.398;2024-03-29T10:54:33;7.50;;;6.72;;
54897;SDS011;40800;52.704;6.398;2024-03-29T10:57:03;7.97;;;7.32;;
54897;SDS011;40800;52.704;6.398;2024-03-29T10:59:48;8.95;;;8.18;;
54897;SDS011;40800;52.704;6.398;2024-03-29T11:02:21;8.27;;;7.57;;
54897;SDS011;40800;52.704;6.398;2024-03-29T11:05:12;8.80;;;7.90;;
54897;SDS011;40800;52.704;6.398;2024-03-29T11:07:40;9.00;;;8.20;;
54897;SDS011;40800;52.704;6.398;2024-03-29T11:10:10;9.23;;;8.43;;
54897;SDS011;40800;52.704;6.398;2024-03-29T11:12:41;8.73;;;7.93;;
54897;SDS011;40800;52.704;6.398;2024-03-29T11:15:30;8.95;;;8.05;;
54897;SDS011;40800;52.704;6.398;2024-03-29T11:17:56;8.48;;;7.78;;
54897;SDS011;40800;52.704;6.398;2024-03-29T11:20:23;8.80;;;7.90;;
54897;SDS011;40800;52.704;6.398;2024-03-29T11:22:59;7.30;;;6.70;;
54897;SDS011;40800;52.704;6.398;2024-03-29T11:25:40;10.13;;;6.85;;
54897;SDS011;40800;52.704;6.398;2024-03-29T11:28:11;11.07;;;6.68;;
54897;SDS011;40800;52.704;6.398;2024-03-29T11:30:47;8.30;;;6.63;;
54897;SDS011;40800;52.704;6.398;2024-03-29T11:33:30;9.25;;;5.85;;
54897;SDS011;40800;52.704;6.398;2024-03-29T11:35:59;6.90;;;5.80;;
54897;SDS011;40800;52.704;6.398;2024-03-29T11:38:34;8.32;;;5.93;;
54897;SDS011;40800;52.704;6.398;2024-03-29T11:41:01;7.97;;;5.68;;
54897;SDS011;40800;52.704;6.398;2024-03-29T11:43:31;9.32;;;6.20;;
54897;SDS011;40800;52.704;6.398;2024-03-29T11:48:26;8.13;;;6.40;;
54897;SDS011;40800;52.704;6.398;2024-03-29T11:50:53;9.00;;;6.15;;
54897;SDS011;40800;52.704;6.398;2024-03-29T11:53:19;8.35;;;5.80;;
54897;SDS011;40800;52.704;6.398;2024-03-29T11:55:47;7.80;;;5.43;;
54897;SDS011;40800;52.704;6.398;2024-03-29T11:58:14;7.60;;;5.68;;
54897;SDS011;40800;52.704;6.398;2024-03-29T12:00:40;9.82;;;5.93;;
54897;SDS011;40800;52.704;6.398;2024-03-29T12:03:09;9.02;;;5.85;;
54897;SDS011;40800;52.704;6.398;2024-03-29T12:05:35;7.97;;;5.53;;
54897;SDS011;40800;52.704;6.398;2024-03-29T12:08:00;7.03;;;5.55;;
54897;SDS011;40800;52.704;6.398;2024-03-29T12:10:27;8.48;;;5.70;;
54897;SDS011;40800;52.704;6.398;2024-03-29T12:12:56;7.90;;;5.85;;
54897;SDS011;40800;52.704;6.398;2024-03-29T12:15:23;8.18;;;5.70;;
54897;SDS011;40800;52.704;6.398;2024-03-29T12:18:05;8.27;;;6.07;;
54897;SDS011;40800;52.704;6.398;2024-03-29T12:20:31;7.82;;;5.60;;
54897;SDS011;40800;52.704;6.398;2024-03-29T12:23:01;6.95;;;5.70;;
54897;SDS011;40800;52.704;6.398;2024-03-29T12:25:31;8.25;;;5.80;;
54897;SDS011;40800;52.704;6.398;2024-03-29T12:27:58;7.10;;;5.97;;
54897;SDS011;40800;52.704;6.398;2024-03-29T12:30:25;7.85;;;6.18;;
54897;SDS011;40800;52.704;6.398;2024-03-29T12:33:04;8.52;;;6.70;;
54897;SDS011;40800;52.704;6.398;2024-03-29T12:35:48;8.98;;;6.82;;
54897;SDS011;40800;52.704;6.398;2024-03-29T12:38:17;8.05;;;6.53;;
54897;SDS011;40800;52.704;6.398;2024-03-29T12:40:47;7.90;;;4.50;;
54897;SDS011;40800;52.704;6.398;2024-03-29T12:43:14;7.75;;;2.83;;
54897;SDS011;40800;52.704;6.398;2024-03-29T12:45:42;8.45;;;2.63;;
54897;SDS011;40800;52.704;6.398;2024-03-29T12:48:15;11.32;;;2.97;;
54897;SDS011;40800;52.704;6.398;2024-03-29T12:50:50;9.43;;;2.88;;
54897;SDS011;40800;52.704;6.398;2024-03-29T12:53:17;9.55;;;2.90;;
54897;SDS011;40800;52.704;6.398;2024-03-29T12:55:43;9.50;;;3.42;;
54897;SDS011;40800;52.704;6.398;2024-03-29T12:58:21;11.65;;;3.70;;
54897;SDS011;40800;52.704;6.398;2024-03-29T13:00:47;9.98;;;3.60;;
54897;SDS011;40800;52.704;6.398;2024-03-29T13:03:13;10.02;;;3.83;;
54897;SDS011;40800;52.704;6.398;2024-03-29T13:05:39;9.40;;;3.67;;
54897;SDS011;40800;52.704;6.398;2024-03-29T13:08:07;10.70;;;4.25;;
54897;SDS011;40800;52.704;6.398;2024-03-29T13:10:37;9.48;;;4.38;;
54897;SDS011;40800;52.704;6.398;2024-03-29T13:13:04;8.90;;;4.07;;
54897;SDS011;40800;52.704;6.398;2024-03-29T13:15:31;9.75;;;3.70;;
54897;SDS011;40800;52.704;6.398;2024-03-29T13:17:58;8.48;;;3.50;;
54897;SDS011;40800;52.704;6.398;2024-03-29T13:20:25;10.50;;;3.67;;
54897;SDS011;40800;52.704;6.398;2024-03-29T13:22:51;9.23;;;3.50;;
54897;SDS011;40800;52.704;6.398;2024-03-29T13:25:19;8.25;;;3.03;;
54897;SDS011;40800;52.704;6.398;2024-03-29T13:27:46;9.10;;;3.13;;
54897;SDS011;40800;52.704;6.398;2024-03-29T13:30:13;8.30;;;2.72;;
54897;SDS011;40800;52.704;6.398;2024-03-29T13:32:40;8.00;;;2.78;;
54897;SDS011;40800;52.704;6.398;2024-03-29T13:35:10;9.07;;;2.90;;
54897;SDS011;40800;52.704;6.398;2024-03-29T13:37:37;8.40;;;3.00;;
54897;SDS011;40800;52.704;6.398;2024-03-29T13:40:08;7.82;;;3.05;;
54897;SDS011;40800;52.704;6.398;2024-03-29T13:42:35;8.07;;;2.90;;
54897;SDS011;40800;52.704;6.398;2024-03-29T13:47:28;8.07;;;2.80;;
54897;SDS011;40800;52.704;6.398;2024-03-29T13:49:53;7.88;;;3.03;;
54897;SDS011;40800;52.704;6.398;2024-03-29T13:52:21;8.73;;;2.92;;
54897;SDS011;40800;52.704;6.398;2024-03-29T13:54:46;7.97;;;2.85;;
54897;SDS011;40800;52.704;6.398;2024-03-29T13:57:15;7.78;;;3.22;;
54897;SDS011;40800;52.704;6.398;2024-03-29T13:59:41;7.22;;;2.60;;
54897;SDS011;40800;52.704;6.398;2024-03-29T14:02:13;6.05;;;2.50;;
54897;SDS011;40800;52.704;6.398;2024-03-29T14:04:40;6.65;;;2.58;;
54897;SDS011;40800;52.704;6.398;2024-03-29T14:07:08;6.43;;;2.50;;
54897;SDS011;40800;52.704;6.398;2024-03-29T14:09:36;5.68;;;2.38;;
54897;SDS011;40800;52.704;6.398;2024-03-29T14:12:11;6.57;;;2.40;;
54897;SDS011;40800;52.704;6.398;2024-03-29T14:14:38;6.20;;;2.40;;
54897;SDS011;40800;52.704;6.398;2024-03-29T14:17:04;5.40;;;2.10;;
54897;SDS011;40800;52.704;6.398;2024-03-29T14:19:31;5.18;;;2.00;;
54897;SDS011;40800;52.704;6.398;2024-03-29T14:22:01;4.72;;;2.10;;
54897;SDS011;40800;52.704;6.398;2024-03-29T14:24:28;6.90;;;2.60;;
54897;SDS011;40800;52.704;6.398;2024-03-29T14:26:55;5.60;;;2.33;;
54897;SDS011;40800;52.704;6.398;2024-03-29T14:29:22;9.73;;;2.47;;
54897;SDS011;40800;52.704;6.398;2024-03-29T14:31:48;4.97;;;2.15;;
54897;SDS011;40800;52.704;6.398;2024-03-29T14:34:14;4.63;;;2.00;;
54897;SDS011;40800;52.704;6.398;2024-03-29T14:36:40;4.43;;;2.05;;
54897;SDS011;40800;52.704;6.398;2024-03-29T14:39:06;4.65;;;2.03;;
54897;SDS011;40800;52.704;6.398;2024-03-29T14:41:32;5.32;;;2.05;;
54897;SDS011;40800;52.704;6.398;2024-03-29T14:44:00;4.55;;;2.00;;
54897;SDS011;40800;52.704;6.398;2024-03-29T14:46:26;5.35;;;2.00;;
54897;SDS011;40800;52.704;6.398;2024-03-29T14:48:51;5.82;;;2.00;;
54897;SDS011;40800;52.704;6.398;2024-03-29T14:51:17;4.68;;;2.10;;
54897;SDS011;40800;52.704;6.398;2024-03-29T14:53:44;4.82;;;1.85;;
54897;SDS011;40800;52.704;6.398;2024-03-29T14:56:14;5.10;;;1.98;;
54897;SDS011;40800;52.704;6.398;2024-03-29T14:58:42;5.60;;;2.10;;
54897;SDS011;40800;52.704;6.398;2024-03-29T15:01:08;5.78;;;2.38;;
54897;SDS011;40800;52.704;6.398;2024-03-29T15:03:34;7.00;;;2.40;;
54897;SDS011;40800;52.704;6.398;2024-03-29T15:06:00;5.40;;;2.38;;
54897;SDS011;40800;52.704;6.398;2024-03-29T15:08:25;6.72;;;2.80;;
54897;SDS011;40800;52.704;6.398;2024-03-29T15:11:00;5.40;;;2.20;;